Time;durP1;ratioP1;P1;durP2;ratioP2;P2;SDS_P1;SDS_P2;PMS_P1;PMS_P2;Temp;Humidity;BMP_temperature;BMP_pressure;BME280_temperature;BME280_humidity;BME280_pressure;Samples;Min_cycle;Max_cycle;Signal;HPM_P1;HPM_P2
2021/09/19 00:02:01;;;;;;;6.43;5.65;;;10.90;99.90;;;;;;4967887;28;20544;-65
2021/09/19 00:04:29;;;;;;;10.30;7.35;;;10.90;99.90;;;;;;4964699;28;20513;-62
2021/09/19 00:06:56;;;;;;;6.70;5.95;;;10.80;99.90;;;;;;4966466;28;20269;-60
2021/09/19 00:09:23;;;;;;;6.78;5.32;;;10.70;99.90;;;;;;4964921;28;20213;-60
2021/09/19 00:11:50;;;;;;;5.72;5.15;;;10.80;99.90;;;;;;4967407;28;20236;-61
2021/09/19 00:14:18;;;;;;;6.00;5.40;;;10.80;99.90;;;;;;4965512;28;20228;-62
2021/09/19 00:16:45;;;;;;;6.70;5.05;;;10.80;99.90;;;;;;4972785;28;20235;-56
2021/09/19 00:19:12;;;;;;;5.72;5.00;;;10.80;99.90;;;;;;4970202;28;20224;-60
2021/09/19 00:21:40;;;;;;;5.22;4.68;;;10.70;99.90;;;;;;4968946;28;20225;-62
2021/09/19 00:24:08;;;;;;;6.70;5.30;;;10.60;99.90;;;;;;4964759;28;20205;-58
2021/09/19 00:26:35;;;;;;;5.32;4.28;;;10.60;99.90;;;;;;4968484;28;20206;-62
2021/09/19 00:29:03;;;;;;;5.80;5.30;;;10.60;99.90;;;;;;4970200;28;20214;-59
2021/09/19 00:31:30;;;;;;;6.65;5.95;;;10.70;99.90;;;;;;4965125;28;20224;-57
2021/09/19 00:33:57;;;;;;;5.30;4.80;;;10.80;99.90;;;;;;4969294;28;20224;-63
2021/09/19 00:36:24;;;;;;;6.47;5.07;;;10.70;99.90;;;;;;4965051;28;20201;-60
2021/09/19 00:38:51;;;;;;;7.78;6.25;;;10.70;99.90;;;;;;4964810;28;20209;-62
2021/09/19 00:41:18;;;;;;;5.63;5.07;;;10.60;99.90;;;;;;4966374;28;20220;-61
2021/09/19 00:43:45;;;;;;;5.28;4.70;;;10.60;99.90;;;;;;4964998;28;20212;-62
2021/09/19 00:46:13;;;;;;;8.20;6.50;;;10.60;99.90;;;;;;4964549;28;20208;-64
2021/09/19 00:48:40;;;;;;;5.75;4.90;;;10.60;99.90;;;;;;4967879;28;20434;-60
2021/09/19 00:51:07;;;;;;;7.13;4.75;;;10.60;99.90;;;;;;4969380;28;20450;-60
2021/09/19 00:53:38;;;;;;;5.20;4.47;;;10.60;99.90;;;;;;4964848;28;20209;-59
2021/09/19 00:56:07;;;;;;;8.02;5.85;;;10.60;99.90;;;;;;4964426;28;20372;-62
2021/09/19 00:58:39;;;;;;;5.70;4.97;;;10.60;99.90;;;;;;4964852;28;20230;-64
2021/09/19 01:01:06;;;;;;;6.05;4.55;;;10.60;99.90;;;;;;4967957;28;20247;-59
2021/09/19 01:03:35;;;;;;;6.90;6.20;;;10.60;99.90;;;;;;4964367;28;20229;-62
2021/09/19 01:06:02;;;;;;;4.78;4.25;;;10.60;99.90;;;;;;4965692;28;20219;-60
2021/09/19 01:08:30;;;;;;;5.32;4.80;;;10.60;99.90;;;;;;4964138;28;20204;-60
2021/09/19 01:10:57;;;;;;;7.30;4.88;;;10.60;99.90;;;;;;4964675;28;20531;-61
2021/09/19 01:13:26;;;;;;;5.03;4.13;;;10.60;99.90;;;;;;4966575;28;20396;-62
2021/09/19 01:15:54;;;;;;;6.30;4.63;;;10.60;99.90;;;;;;4967990;28;20259;-57
2021/09/19 01:18:23;;;;;;;4.88;4.43;;;10.60;99.90;;;;;;4969798;28;20486;-61
2021/09/19 01:20:52;;;;;;;5.72;4.72;;;10.60;99.90;;;;;;4969068;28;20240;-60
2021/09/19 01:23:20;;;;;;;6.38;5.47;;;10.60;99.90;;;;;;4967813;28;20271;-61
2021/09/19 01:25:49;;;;;;;5.10;4.55;;;10.60;99.90;;;;;;4971515;28;20272;-61
2021/09/19 01:28:16;;;;;;;10.50;5.95;;;10.60;99.90;;;;;;4969458;28;20203;-62
2021/09/19 01:30:44;;;;;;;7.72;5.38;;;10.60;99.90;;;;;;4966437;28;20255;-63
2021/09/19 01:33:11;;;;;;;5.13;4.63;;;10.60;99.90;;;;;;4969381;28;20293;-58
2021/09/19 01:35:39;;;;;;;5.68;5.18;;;10.60;99.90;;;;;;4968809;28;20232;-60
2021/09/19 01:38:06;;;;;;;5.88;5.38;;;10.60;99.90;;;;;;4974798;28;20413;-59
2021/09/19 01:40:33;;;;;;;6.35;4.22;;;10.60;99.90;;;;;;4967327;28;20193;-57
2021/09/19 01:43:03;;;;;;;6.65;4.90;;;10.50;99.90;;;;;;4974026;28;20443;-61
2021/09/19 01:45:30;;;;;;;7.80;4.93;;;10.50;99.90;;;;;;4972069;28;20212;-61
2021/09/19 01:47:58;;;;;;;5.97;5.30;;;10.60;99.90;;;;;;4976391;28;20204;-60
2021/09/19 01:50:26;;;;;;;5.93;5.32;;;10.60;99.90;;;;;;4972859;28;20507;-62
2021/09/19 01:52:54;;;;;;;6.00;4.32;;;10.70;99.90;;;;;;4972768;28;20236;-60
2021/09/19 01:55:22;;;;;;;5.95;5.15;;;10.60;99.90;;;;;;4973976;28;20278;-61
2021/09/19 01:57:49;;;;;;;7.80;4.70;;;10.60;99.90;;;;;;4970475;28;20206;-60
2021/09/19 02:00:17;;;;;;;4.88;4.43;;;10.60;99.90;;;;;;4969380;28;20199;-57
2021/09/19 02:02:44;;;;;;;6.22;5.35;;;10.50;99.90;;;;;;4967124;28;20610;-54
2021/09/19 02:05:12;;;;;;;6.00;5.40;;;10.50;99.90;;;;;;4970563;28;20527;-59
2021/09/19 02:07:39;;;;;;;6.13;4.10;;;10.50;99.90;;;;;;4969785;28;20256;-57
2021/09/19 02:10:11;;;;;;;6.72;4.68;;;10.40;99.90;;;;;;4967584;28;20230;-61
2021/09/19 02:12:39;;;;;;;6.95;5.32;;;10.40;99.90;;;;;;4966848;28;20236;-60
2021/09/19 02:15:09;;;;;;;4.85;4.25;;;10.40;99.90;;;;;;4968025;28;20224;-56
2021/09/19 02:17:36;;;;;;;4.90;4.40;;;10.40;99.90;;;;;;4972359;28;20203;-57
2021/09/19 02:20:08;;;;;;;4.88;4.45;;;10.30;99.90;;;;;;4968398;28;20202;-61
2021/09/19 02:22:35;;;;;;;7.15;5.05;;;10.30;99.90;;;;;;4970605;28;20221;-58
2021/09/19 02:25:03;;;;;;;8.63;4.93;;;10.20;99.90;;;;;;4971875;28;20209;-59
2021/09/19 02:27:30;;;;;;;5.70;4.90;;;10.20;99.90;;;;;;4967162;28;20204;-58
2021/09/19 02:29:58;;;;;;;4.55;4.15;;;10.20;99.90;;;;;;4967717;28;20209;-62
2021/09/19 02:32:25;;;;;;;5.80;4.72;;;10.20;99.90;;;;;;4967427;28;20232;-56
2021/09/19 02:34:52;;;;;;;5.07;4.68;;;10.10;99.90;;;;;;4968399;28;20262;-55
2021/09/19 02:37:19;;;;;;;6.03;5.07;;;10.00;99.90;;;;;;4966682;28;20207;-59
2021/09/19 02:39:47;;;;;;;7.00;5.10;;;10.00;99.90;;;;;;4966851;28;20216;-59
2021/09/19 02:42:14;;;;;;;6.65;4.82;;;9.90;99.90;;;;;;4970542;28;20226;-59
2021/09/19 02:44:41;;;;;;;8.27;5.88;;;9.90;99.90;;;;;;4965467;28;20210;-55
2021/09/19 02:47:08;;;;;;;5.88;5.38;;;10.00;99.90;;;;;;4968219;28;20203;-58
2021/09/19 02:49:36;;;;;;;5.05;4.15;;;9.90;99.90;;;;;;4966583;28;20255;-58
2021/09/19 02:52:03;;;;;;;6.05;5.45;;;9.90;99.90;;;;;;4967696;28;20534;-54
2021/09/19 02:54:31;;;;;;;6.65;5.63;;;9.90;99.90;;;;;;4967049;28;20541;-57
2021/09/19 02:56:57;;;;;;;6.07;5.15;;;9.80;99.90;;;;;;4968921;28;20199;-60
2021/09/19 02:59:24;;;;;;;4.32;3.92;;;9.70;99.90;;;;;;4967467;28;20437;-60
2021/09/19 03:01:52;;;;;;;5.40;4.95;;;9.60;99.90;;;;;;4964871;28;20339;-59
2021/09/19 03:04:19;;;;;;;6.25;5.53;;;9.60;99.90;;;;;;4968128;28;20198;-59
2021/09/19 03:06:47;;;;;;;10.40;6.40;;;9.60;99.90;;;;;;4965988;28;20207;-61
2021/09/19 03:09:14;;;;;;;6.25;4.47;;;9.60;99.90;;;;;;4968086;28;20210;-58
2021/09/19 03:11:42;;;;;;;8.75;6.28;;;9.50;99.90;;;;;;4965839;28;20235;-59
2021/09/19 03:14:09;;;;;;;6.40;5.07;;;9.60;99.90;;;;;;4967810;28;20222;-56
2021/09/19 03:16:36;;;;;;;6.63;5.70;;;9.50;99.90;;;;;;4966086;28;20387;-59
2021/09/19 03:19:03;;;;;;;5.07;4.53;;;9.40;99.90;;;;;;4966582;28;20255;-56
2021/09/19 03:21:30;;;;;;;9.43;5.15;;;9.40;99.90;;;;;;4967816;28;20379;-59
2021/09/19 03:23:57;;;;;;;6.43;5.28;;;9.40;99.90;;;;;;4968307;28;20238;-55
2021/09/19 03:26:25;;;;;;;7.15;5.22;;;9.30;99.90;;;;;;4967946;28;20226;-55
2021/09/19 03:28:52;;;;;;;5.97;5.38;;;9.30;99.90;;;;;;4965968;28;20505;-59
2021/09/19 03:31:19;;;;;;;5.00;4.40;;;9.30;99.90;;;;;;4966444;28;20221;-55
2021/09/19 03:33:46;;;;;;;10.23;6.57;;;9.30;99.90;;;;;;4966386;28;20293;-58
2021/09/19 03:36:14;;;;;;;8.82;5.63;;;9.40;99.90;;;;;;4969643;28;20281;-57
2021/09/19 03:38:41;;;;;;;5.70;4.65;;;9.50;99.90;;;;;;4966008;28;20204;-54
2021/09/19 03:41:09;;;;;;;6.38;4.68;;;9.60;99.90;;;;;;4967820;28;20242;-53
2021/09/19 03:43:36;;;;;;;5.70;5.10;;;9.60;99.90;;;;;;4965433;28;20267;-52
2021/09/19 03:46:03;;;;;;;4.60;4.20;;;9.80;99.90;;;;;;4965875;28;20256;-57
2021/09/19 03:48:30;;;;;;;5.82;5.20;;;9.80;99.90;;;;;;4966264;28;20316;-59
2021/09/19 03:50:59;;;;;;;4.80;4.30;;;9.90;99.90;;;;;;4966012;28;20259;-55
2021/09/19 03:53:26;;;;;;;6.30;4.85;;;9.90;99.90;;;;;;4966440;28;20207;-53
2021/09/19 03:55:53;;;;;;;5.13;4.63;;;9.90;99.90;;;;;;4965419;28;20258;-55
2021/09/19 03:58:21;;;;;;;8.73;4.18;;;10.00;99.90;;;;;;4965931;28;20247;-59
2021/09/19 04:00:49;;;;;;;5.53;5.00;;;10.10;99.90;;;;;;4967345;28;20498;-56
2021/09/19 04:03:16;;;;;;;7.03;5.72;;;10.20;99.90;;;;;;4967391;28;20615;-56
2021/09/19 04:05:43;;;;;;;3.65;3.35;;;10.30;99.90;;;;;;4966091;28;20444;-56
2021/09/19 04:08:14;;;;;;;6.18;5.47;;;10.20;99.90;;;;;;4965352;28;20230;-55
2021/09/19 04:10:41;;;;;;;6.65;5.25;;;10.20;99.90;;;;;;4965368;28;20217;-54
2021/09/19 04:13:08;;;;;;;6.68;5.70;;;10.30;99.90;;;;;;4966615;28;20460;-57
2021/09/19 04:15:35;;;;;;;5.57;4.50;;;10.20;99.90;;;;;;4965672;28;20228;-57
2021/09/19 04:18:03;;;;;;;6.38;5.75;;;10.30;99.90;;;;;;4967329;28;20200;-58
2021/09/19 04:20:30;;;;;;;6.88;5.35;;;10.20;99.90;;;;;;4965927;28;20264;-54
2021/09/19 04:22:58;;;;;;;4.53;4.13;;;10.20;99.90;;;;;;4965663;28;20524;-58
2021/09/19 04:25:25;;;;;;;5.40;4.57;;;10.30;99.90;;;;;;4968891;28;20203;-56
2021/09/19 04:27:53;;;;;;;5.07;4.63;;;10.30;99.90;;;;;;4965555;28;20203;-57
2021/09/19 04:30:20;;;;;;;8.60;5.68;;;10.30;99.90;;;;;;4965247;28;20250;-57
2021/09/19 04:32:47;;;;;;;5.45;4.95;;;10.40;99.90;;;;;;4965039;28;20234;-59
2021/09/19 04:35:14;;;;;;;5.45;4.95;;;10.40;99.90;;;;;;4968730;28;20230;-55
2021/09/19 04:37:41;;;;;;;6.20;4.68;;;10.40;99.90;;;;;;4965061;28;20204;-57
2021/09/19 04:40:09;;;;;;;7.95;4.97;;;10.50;99.90;;;;;;4967337;28;20216;-59
2021/09/19 04:42:36;;;;;;;8.60;5.35;;;10.50;99.90;;;;;;4967223;28;20263;-60
2021/09/19 04:45:05;;;;;;;4.90;4.32;;;10.70;99.90;;;;;;4965553;28;20512;-55
2021/09/19 04:47:33;;;;;;;5.15;4.65;;;10.70;99.90;;;;;;4967868;28;20252;-59
2021/09/19 04:50:01;;;;;;;6.40;4.78;;;10.80;99.90;;;;;;4969323;28;20205;-57
2021/09/19 04:52:29;;;;;;;4.15;3.83;;;10.70;99.90;;;;;;4969341;28;20306;-57
2021/09/19 04:54:56;;;;;;;4.68;4.25;;;10.60;99.90;;;;;;4972028;28;20568;-55
2021/09/19 04:57:23;;;;;;;5.80;5.30;;;10.60;99.90;;;;;;4970461;28;20269;-59
2021/09/19 04:59:50;;;;;;;4.90;4.40;;;10.50;99.90;;;;;;4969870;28;20439;-56
2021/09/19 05:02:17;;;;;;;5.20;4.70;;;10.60;99.90;;;;;;4971597;28;20228;-62
2021/09/19 05:04:44;;;;;;;6.65;4.78;;;10.70;99.90;;;;;;4969296;28;20203;-56
2021/09/19 05:07:11;;;;;;;6.72;5.00;;;10.60;99.90;;;;;;4971358;28;20201;-56
2021/09/19 05:09:40;;;;;;;5.47;4.47;;;10.60;99.90;;;;;;4968323;28;20197;-56
2021/09/19 05:12:08;;;;;;;6.10;4.68;;;10.60;99.90;;;;;;4971056;28;20228;-53
2021/09/19 05:14:35;;;;;;;6.68;4.65;;;10.60;99.90;;;;;;4971656;28;20200;-59
2021/09/19 05:17:03;;;;;;;6.13;5.10;;;10.70;99.90;;;;;;4969692;28;20546;-58
2021/09/19 05:19:29;;;;;;;5.40;4.50;;;10.70;99.90;;;;;;4969250;28;20448;-55
2021/09/19 05:21:57;;;;;;;5.68;5.15;;;10.70;99.90;;;;;;4969122;28;20220;-55
2021/09/19 05:24:24;;;;;;;5.30;4.80;;;10.70;99.90;;;;;;4972079;28;20238;-55
2021/09/19 05:26:51;;;;;;;5.93;4.93;;;10.80;99.90;;;;;;4968632;28;20211;-54
2021/09/19 05:29:18;;;;;;;4.70;4.20;;;10.90;99.90;;;;;;4968654;28;20202;-56
2021/09/19 05:31:45;;;;;;;5.18;4.70;;;11.20;99.90;;;;;;4968307;28;20277;-55
2021/09/19 05:34:13;;;;;;;6.35;5.15;;;11.20;99.90;;;;;;4970806;28;20258;-54
2021/09/19 05:36:40;;;;;;;5.38;4.88;;;11.10;99.90;;;;;;4969260;28;20270;-53
2021/09/19 05:39:08;;;;;;;6.70;5.45;;;11.10;99.90;;;;;;4970484;28;20201;-54
2021/09/19 05:41:35;;;;;;;4.88;4.28;;;11.20;99.90;;;;;;4968572;28;20220;-56
2021/09/19 05:44:02;;;;;;;5.72;5.13;;;11.30;99.90;;;;;;4968751;28;20200;-53
2021/09/19 05:46:29;;;;;;;6.60;5.68;;;11.30;99.90;;;;;;4968362;28;20260;-53
2021/09/19 05:48:59;;;;;;;6.22;5.47;;;11.30;99.90;;;;;;4969877;28;20534;-55
2021/09/19 05:51:27;;;;;;;5.32;4.82;;;11.20;99.90;;;;;;4968629;28;20247;-56
2021/09/19 05:53:54;;;;;;;8.05;5.43;;;11.30;99.90;;;;;;4968447;28;20431;-50
2021/09/19 05:56:21;;;;;;;9.38;5.22;;;11.30;99.90;;;;;;4970067;28;20620;-56
2021/09/19 05:58:49;;;;;;;5.40;4.90;;;11.60;99.90;;;;;;4970141;28;21034;-55
2021/09/19 06:01:16;;;;;;;5.50;4.60;;;11.80;99.90;;;;;;4969436;28;20538;-56
2021/09/19 06:03:43;;;;;;;6.72;4.35;;;11.60;99.90;;;;;;4969663;28;20206;-58
2021/09/19 06:06:10;;;;;;;4.72;4.32;;;11.40;99.90;;;;;;4970440;28;20206;-53
2021/09/19 06:08:38;;;;;;;6.07;5.47;;;11.40;99.90;;;;;;4968326;28;20216;-54
2021/09/19 06:11:05;;;;;;;5.55;4.93;;;11.50;99.90;;;;;;4969589;28;20286;-58
2021/09/19 06:13:32;;;;;;;6.68;4.80;;;11.70;99.90;;;;;;4968974;28;20342;-58
2021/09/19 06:15:59;;;;;;;7.38;6.07;;;11.70;99.90;;;;;;4969636;28;20236;-51
2021/09/19 06:18:28;;;;;;;8.23;5.45;;;11.90;99.90;;;;;;4970694;28;20264;-57
2021/09/19 06:21:00;;;;;;;5.13;4.60;;;11.90;99.90;;;;;;4970117;28;20421;-52
2021/09/19 06:23:30;;;;;;;6.80;5.45;;;11.90;99.90;;;;;;4970168;28;20435;-49
2021/09/19 06:25:58;;;;;;;5.95;5.38;;;12.00;99.90;;;;;;4971114;28;20257;-53
2021/09/19 06:28:25;;;;;;;5.07;4.25;;;12.10;99.90;;;;;;4969675;28;20452;-58
2021/09/19 06:30:52;;;;;;;7.93;5.20;;;12.30;99.90;;;;;;4968051;28;20284;-53
2021/09/19 06:33:20;;;;;;;6.38;5.50;;;12.50;99.90;;;;;;4966955;28;20205;-56
2021/09/19 06:35:48;;;;;;;6.22;4.88;;;12.60;99.90;;;;;;4963313;28;20220;-56
2021/09/19 06:38:15;;;;;;;6.40;5.00;;;12.50;99.90;;;;;;4962763;28;20218;-59
2021/09/19 06:40:42;;;;;;;7.28;5.03;;;12.40;99.90;;;;;;4962712;28;20224;-54
2021/09/19 06:43:09;;;;;;;8.05;4.60;;;12.60;99.90;;;;;;4962716;28;20199;-52
2021/09/19 06:45:36;;;;;;;5.57;4.53;;;12.70;99.90;;;;;;4963363;28;20261;-53
2021/09/19 06:48:04;;;;;;;5.32;4.82;;;12.60;99.90;;;;;;4963163;28;20205;-56
2021/09/19 06:50:31;;;;;;;5.18;4.65;;;12.70;99.90;;;;;;4963025;28;20245;-57
2021/09/19 06:52:58;;;;;;;5.95;5.38;;;12.70;99.90;;;;;;4962375;28;20225;-57
2021/09/19 06:55:25;;;;;;;5.05;4.50;;;12.80;99.90;;;;;;4962624;28;20203;-59
2021/09/19 06:57:56;;;;;;;6.35;5.53;;;13.10;99.90;;;;;;4962865;28;20202;-55
2021/09/19 07:00:24;;;;;;;6.20;4.95;;;13.30;99.90;;;;;;4968764;28;20262;-59
2021/09/19 07:02:51;;;;;;;7.47;5.70;;;13.70;99.90;;;;;;4963069;28;20222;-57
2021/09/19 07:05:20;;;;;;;7.72;5.00;;;14.20;99.90;;;;;;4964679;28;20254;-52
2021/09/19 07:07:47;;;;;;;4.47;4.07;;;14.30;99.90;;;;;;4962776;28;20250;-55
2021/09/19 07:10:15;;;;;;;10.20;4.80;;;14.40;99.90;;;;;;4963296;28;20250;-56
2021/09/19 07:12:43;;;;;;;5.95;5.45;;;14.40;99.90;;;;;;4962453;28;20229;-54
2021/09/19 07:15:11;;;;;;;8.43;4.80;;;14.60;99.90;;;;;;4962276;28;20231;-55
2021/09/19 07:17:38;;;;;;;6.07;5.00;;;14.50;99.90;;;;;;4965025;28;20584;-52
2021/09/19 07:20:06;;;;;;;5.05;4.43;;;14.60;99.90;;;;;;4962100;28;20199;-55
2021/09/19 07:22:34;;;;;;;7.75;5.50;;;14.40;99.90;;;;;;4962358;28;20219;-54
2021/09/19 07:25:03;;;;;;;6.07;4.90;;;14.40;99.90;;;;;;4966971;28;20206;-52
2021/09/19 07:27:31;;;;;;;4.63;4.22;;;14.40;99.90;;;;;;4966867;28;20241;-52
2021/09/19 07:29:58;;;;;;;5.38;4.93;;;14.30;99.90;;;;;;4965829;28;20210;-52
2021/09/19 07:32:26;;;;;;;5.25;4.53;;;14.20;99.90;;;;;;4967634;28;20222;-54
2021/09/19 07:34:53;;;;;;;5.25;4.35;;;14.20;99.90;;;;;;4967708;28;20211;-58
2021/09/19 07:37:21;;;;;;;7.72;5.90;;;14.20;99.90;;;;;;4968873;28;20273;-53
2021/09/19 07:39:48;;;;;;;6.20;5.60;;;14.10;99.90;;;;;;4967787;28;20498;-58
2021/09/19 07:42:15;;;;;;;4.30;3.90;;;13.80;99.90;;;;;;4971478;28;20571;-55
2021/09/19 07:44:43;;;;;;;6.40;5.78;;;13.90;99.90;;;;;;4965297;28;20513;-53
2021/09/19 07:47:11;;;;;;;5.43;4.95;;;14.30;99.90;;;;;;4969112;28;20211;-56
2021/09/19 07:49:39;;;;;;;5.38;4.60;;;14.70;99.90;;;;;;4971570;28;20214;-52
2021/09/19 07:52:08;;;;;;;5.88;5.25;;;15.10;99.90;;;;;;4975245;28;20282;-51
2021/09/19 07:54:35;;;;;;;5.78;5.22;;;15.60;99.90;;;;;;4967063;28;20242;-55
2021/09/19 07:57:02;;;;;;;6.78;6.18;;;16.90;99.90;;;;;;4977055;28;20533;-51
2021/09/19 07:59:29;;;;;;;10.15;5.20;;;16.90;99.90;;;;;;4976871;28;20198;-57
2021/09/19 08:01:57;;;;;;;5.90;4.78;;;16.60;99.90;;;;;;4972363;28;20259;-56
2021/09/19 08:04:24;;;;;;;5.05;4.57;;;16.40;99.90;;;;;;4979367;28;20270;-56
2021/09/19 08:06:52;;;;;;;5.78;5.28;;;16.10;99.90;;;;;;4971783;28;20266;-55
2021/09/19 08:09:19;;;;;;;5.22;4.40;;;16.10;99.90;;;;;;4968702;28;20634;-54
2021/09/19 08:11:46;;;;;;;5.35;4.85;;;15.70;99.90;;;;;;4966222;28;20246;-55
2021/09/19 08:14:13;;;;;;;3.75;3.40;;;15.20;99.90;;;;;;4977228;28;20214;-54
2021/09/19 08:16:41;;;;;;;7.55;4.45;;;15.30;99.90;;;;;;4972190;28;20421;-57
2021/09/19 08:19:09;;;;;;;5.15;4.20;;;15.40;99.90;;;;;;4980496;28;20288;-51
2021/09/19 08:21:38;;;;;;;4.78;4.38;;;15.30;99.90;;;;;;4971395;28;20273;-56
2021/09/19 08:24:07;;;;;;;4.43;4.03;;;15.30;99.90;;;;;;4976693;28;20200;-55
2021/09/19 08:26:34;;;;;;;3.53;3.22;;;15.50;99.90;;;;;;4985397;28;20406;-55
2021/09/19 08:29:02;;;;;;;5.00;4.60;;;15.40;99.90;;;;;;4970982;28;20245;-54
2021/09/19 08:31:29;;;;;;;4.55;4.15;;;15.60;99.90;;;;;;4968284;28;20226;-57
2021/09/19 08:33:56;;;;;;;4.95;3.55;;;15.50;99.90;;;;;;4970227;28;20225;-59
2021/09/19 08:36:24;;;;;;;4.15;3.85;;;15.20;99.90;;;;;;4974646;28;20218;-55
2021/09/19 08:38:53;;;;;;;3.97;3.58;;;14.90;99.90;;;;;;4970314;28;20198;-56
2021/09/19 08:41:21;;;;;;;4.57;4.18;;;14.90;99.90;;;;;;4974365;28;20257;-51
2021/09/19 08:43:49;;;;;;;6.63;4.13;;;15.10;99.90;;;;;;4968386;28;20437;-58
2021/09/19 08:46:18;;;;;;;3.65;3.38;;;15.50;99.90;;;;;;4970588;28;20257;-57
2021/09/19 08:48:45;;;;;;;4.15;3.15;;;15.60;99.90;;;;;;4971333;28;20207;-58
2021/09/19 08:51:13;;;;;;;3.75;3.45;;;15.80;99.90;;;;;;4970542;28;20439;-55
2021/09/19 08:53:41;;;;;;;5.88;3.95;;;16.00;99.90;;;;;;4971096;28;20206;-55
2021/09/19 08:56:09;;;;;;;4.72;4.28;;;16.40;99.90;;;;;;4978470;28;20225;-56
2021/09/19 08:58:39;;;;;;;3.65;3.35;;;16.20;99.90;;;;;;4980354;28;20555;-57
2021/09/19 09:01:07;;;;;;;4.32;3.92;;;16.20;99.90;;;;;;4980532;28;20244;-54
2021/09/19 09:03:34;;;;;;;4.40;4.10;;;15.80;99.90;;;;;;4975165;28;20208;-55
2021/09/19 09:06:07;;;;;;;4.78;4.43;;;15.80;99.90;;;;;;4976321;28;20506;-57
2021/09/19 09:08:35;;;;;;;9.48;3.70;;;15.70;99.90;;;;;;4971443;28;20219;-55
2021/09/19 09:11:06;;;;;;;4.28;3.95;;;16.20;99.90;;;;;;4973317;28;20301;-53
2021/09/19 09:13:37;;;;;;;5.88;5.10;;;16.10;99.90;;;;;;4975109;28;20199;-55
2021/09/19 09:16:15;;;;;;;5.32;3.92;;;16.20;99.90;;;;;;4977927;28;20235;-51
2021/09/19 09:18:52;;;;;;;4.97;4.43;;;16.30;99.90;;;;;;4973007;28;20203;-55
2021/09/19 09:21:28;;;;;;;4.03;3.65;;;16.60;99.90;;;;;;4965459;28;20540;-54
2021/09/19 09:24:01;;;;;;;4.63;4.07;;;16.50;99.90;;;;;;4978056;28;20246;-54
2021/09/19 09:26:37;;;;;;;3.83;3.55;;;16.30;99.90;;;;;;4969762;28;20210;-53
2021/09/19 09:29:10;;;;;;;3.97;3.67;;;16.50;99.90;;;;;;4972542;28;20238;-55
2021/09/19 09:31:39;;;;;;;3.30;3.00;;;17.00;99.90;;;;;;4971228;28;20240;-57
2021/09/19 09:34:15;;;;;;;4.67;4.37;;;17.40;99.90;;;;;;4975639;28;20442;-58
2021/09/19 09:36:51;;;;;;;4.83;4.43;;;17.40;99.90;;;;;;4981367;28;20516;-52
2021/09/19 09:39:29;;;;;;;5.20;4.73;;;17.90;99.90;;;;;;4974231;28;20453;-59
2021/09/19 09:42:04;;;;;;;4.13;3.83;;;18.00;99.90;;;;;;4972835;28;20497;-55
2021/09/19 09:44:41;;;;;;;4.18;3.35;;;17.40;99.90;;;;;;4968129;28;20743;-53
2021/09/19 09:47:18;;;;;;;4.90;4.43;;;17.30;99.90;;;;;;4982189;28;20265;-56
2021/09/19 09:49:57;;;;;;;4.07;3.67;;;17.20;99.90;;;;;;4970285;28;20481;-55
2021/09/19 09:52:30;;;;;;;3.90;3.60;;;17.20;99.90;;;;;;4972828;28;20545;-53
2021/09/19 09:55:08;;;;;;;4.85;4.50;;;16.60;99.90;;;;;;4971477;28;20424;-55
2021/09/19 09:57:35;;;;;;;4.80;4.40;;;16.40;99.90;;;;;;4981188;28;20227;-55
2021/09/19 10:00:05;;;;;;;3.65;3.35;;;16.10;99.90;;;;;;4976952;28;20767;-54
2021/09/19 10:02:33;;;;;;;5.13;3.30;;;16.10;99.90;;;;;;4971354;28;20290;-55
2021/09/19 10:05:04;;;;;;;4.57;4.17;;;16.40;99.90;;;;;;4976168;28;20206;-57
2021/09/19 10:07:31;;;;;;;5.37;4.50;;;16.50;99.90;;;;;;4973803;28;20445;-57
2021/09/19 10:10:00;;;;;;;4.40;3.97;;;16.10;99.90;;;;;;4975787;28;20491;-55
2021/09/19 10:12:27;;;;;;;4.78;4.38;;;15.90;99.90;;;;;;4973023;28;20235;-56
2021/09/19 10:14:55;;;;;;;4.05;3.65;;;15.90;99.90;;;;;;4980041;28;20260;-56
2021/09/19 10:17:23;;;;;;;4.53;4.13;;;16.00;99.90;;;;;;4971556;28;20466;-57
2021/09/19 10:19:51;;;;;;;4.03;3.75;;;16.40;99.90;;;;;;4974284;28;20372;-51
2021/09/19 10:22:26;;;;;;;6.68;4.70;;;16.50;99.90;;;;;;4978676;28;20400;-54
2021/09/19 10:24:54;;;;;;;4.75;4.30;;;16.50;99.90;;;;;;4977734;28;20196;-54
2021/09/19 10:27:23;;;;;;;4.35;4.00;;;16.50;99.90;;;;;;4976608;28;20242;-51
2021/09/19 10:30:04;;;;;;;3.97;3.50;;;16.50;99.90;;;;;;4972014;28;20458;-56
2021/09/19 10:32:38;;;;;;;3.70;3.40;;;16.50;99.90;;;;;;4971032;28;20223;-52
2021/09/19 10:35:32;;;;;;;3.70;3.40;;;16.40;99.90;;;;;;4976285;28;20447;-54
2021/09/19 10:38:04;;;;;;;3.30;3.10;;;16.10;99.90;;;;;;4967797;28;20228;-55
2021/09/19 10:40:39;;;;;;;4.03;3.72;;;16.30;99.90;;;;;;4980508;28;20433;-53
2021/09/19 10:43:16;;;;;;;3.40;3.10;;;16.20;99.90;;;;;;4971952;28;20226;-51
2021/09/19 10:45:45;;;;;;;3.00;2.80;;;16.40;99.90;;;;;;4970061;28;20201;-52
2021/09/19 10:48:18;;;;;;;3.70;3.37;;;16.40;99.90;;;;;;4972757;28;20247;-53
2021/09/19 10:50:47;;;;;;;4.72;3.42;;;16.20;99.90;;;;;;4975821;28;20444;-53
2021/09/19 10:53:23;;;;;;;3.23;3.03;;;16.20;99.90;;;;;;4978044;28;20241;-56
2021/09/19 10:56:04;;;;;;;3.42;3.20;;;16.40;99.90;;;;;;4969763;28;20448;-56
2021/09/19 10:58:39;;;;;;;3.78;3.53;;;16.50;99.90;;;;;;4969744;28;20462;-54
2021/09/19 11:01:17;;;;;;;3.00;2.83;;;16.60;99.90;;;;;;4973493;28;20219;-51
2021/09/19 11:03:46;;;;;;;3.33;3.03;;;16.50;99.90;;;;;;4971549;28;20204;-49
2021/09/19 11:06:44;;;;;;;3.97;3.35;;;16.70;99.90;;;;;;4979431;28;20236;-58
2021/09/19 11:09:35;;;;;;;3.33;3.10;;;16.60;99.90;;;;;;4968166;28;20514;-57
2021/09/19 11:12:08;;;;;;;5.95;3.25;;;16.70;99.90;;;;;;4972928;28;20462;-54
2021/09/19 11:14:56;;;;;;;3.40;3.15;;;16.80;99.90;;;;;;4970421;28;20199;-57
2021/09/19 11:17:26;;;;;;;3.20;3.00;;;17.10;99.90;;;;;;4976209;28;20224;-56
2021/09/19 11:20:14;;;;;;;2.80;2.50;;;17.30;99.90;;;;;;4971958;28;20506;-50
2021/09/19 11:22:47;;;;;;;3.30;3.00;;;17.30;99.90;;;;;;4973799;28;20853;-54
2021/09/19 11:25:16;;;;;;;3.60;3.40;;;17.00;99.90;;;;;;4979393;28;20219;-53
2021/09/19 11:27:46;;;;;;;3.33;3.03;;;16.90;99.90;;;;;;4971743;28;20440;-50
2021/09/19 11:30:18;;;;;;;3.83;3.53;;;16.60;99.90;;;;;;4974002;28;20483;-57
2021/09/19 11:32:46;;;;;;;3.73;3.43;;;16.50;99.90;;;;;;4975488;28;20468;-56
2021/09/19 11:35:13;;;;;;;3.30;3.00;;;16.60;99.90;;;;;;4981401;28;20518;-57
2021/09/19 11:37:40;;;;;;;3.60;3.30;;;16.90;99.90;;;;;;4973391;28;20590;-52
2021/09/19 11:40:10;;;;;;;3.67;3.40;;;16.40;99.90;;;;;;4980670;28;20480;-52
2021/09/19 11:42:38;;;;;;;3.40;3.10;;;16.00;99.90;;;;;;4975553;28;20461;-52
2021/09/19 11:45:10;;;;;;;3.22;2.97;;;15.80;99.90;;;;;;4966230;28;20433;-55
2021/09/19 11:47:39;;;;;;;5.13;3.55;;;15.70;99.90;;;;;;4970067;28;20474;-54
2021/09/19 11:50:08;;;;;;;3.10;2.75;;;15.60;99.90;;;;;;4973260;28;20207;-57
2021/09/19 11:52:35;;;;;;;5.60;3.38;;;15.60;99.90;;;;;;4970861;28;20224;-54
2021/09/19 11:55:03;;;;;;;3.83;3.53;;;15.40;99.90;;;;;;4967335;28;20309;-57
2021/09/19 11:57:30;;;;;;;3.83;3.50;;;15.60;99.90;;;;;;4967355;28;20235;-53
2021/09/19 12:00:04;;;;;;;4.72;3.20;;;15.60;99.90;;;;;;4931163;28;20199;-51
2021/09/19 12:02:31;;;;;;;2.67;2.55;;;15.60;99.90;;;;;;4964628;28;20564;-51
2021/09/19 12:05:00;;;;;;;7.38;6.13;;;15.70;99.90;;;;;;4969755;28;20219;-53
2021/09/19 12:07:27;;;;;;;8.32;6.25;;;15.90;99.90;;;;;;4964519;28;20250;-52
2021/09/19 12:09:54;;;;;;;3.22;2.90;;;16.30;99.90;;;;;;4973259;28;20273;-54
2021/09/19 12:12:21;;;;;;;3.60;3.30;;;16.10;99.90;;;;;;4968386;28;20286;-56
2021/09/19 12:14:54;;;;;;;4.35;3.47;;;15.90;99.90;;;;;;4973621;28;20203;-56
2021/09/19 12:17:28;;;;;;;3.55;3.25;;;15.60;99.90;;;;;;4966007;28;20231;-56
2021/09/19 12:19:58;;;;;;;3.13;2.78;;;15.80;99.90;;;;;;4970941;28;20202;-51
2021/09/19 12:22:26;;;;;;;3.85;3.50;;;15.70;99.90;;;;;;4973297;28;20226;-54
2021/09/19 12:24:59;;;;;;;3.28;3.08;;;15.50;99.90;;;;;;4966618;28;20199;-56
2021/09/19 12:27:29;;;;;;;3.30;3.10;;;15.80;99.90;;;;;;4975856;28;20202;-51
2021/09/19 12:29:58;;;;;;;4.80;3.38;;;16.00;99.90;;;;;;4978126;28;20692;-57
2021/09/19 12:32:39;;;;;;;5.00;2.97;;;16.00;99.90;;;;;;4966167;28;20270;-58
2021/09/19 12:35:10;;;;;;;5.50;3.25;;;16.10;99.90;;;;;;4978981;28;20210;-53
2021/09/19 12:37:41;;;;;;;3.35;3.05;;;16.30;99.90;;;;;;4971713;28;20348;-58
2021/09/19 12:40:17;;;;;;;4.00;3.10;;;15.90;99.90;;;;;;4977816;28;20254;-56
2021/09/19 12:42:45;;;;;;;4.25;3.83;;;15.70;99.90;;;;;;4977471;28;20409;-53
2021/09/19 12:45:14;;;;;;;3.28;3.03;;;16.00;99.90;;;;;;4981051;28;20194;-56
2021/09/19 12:47:43;;;;;;;3.50;3.20;;;16.40;99.90;;;;;;4980095;28;20199;-59
2021/09/19 12:50:15;;;;;;;3.40;3.10;;;16.40;99.90;;;;;;4976809;28;20213;-56
2021/09/19 12:52:43;;;;;;;3.97;3.60;;;15.90;99.90;;;;;;4982844;28;20233;-55
2021/09/19 12:55:18;;;;;;;4.75;3.38;;;15.80;99.90;;;;;;4984877;28;20315;-59
2021/09/19 12:57:47;;;;;;;4.18;3.88;;;15.80;99.90;;;;;;4982691;28;20291;-57